sensor_id;sensor_type;location;lat;lon;timestamp;P1;durP1;ratioP1;P2;durP2;ratioP2
12814;SDS011;6472;52.328;13.070;2024-02-23T00:01:44;0.50;;;0.50;;
12814;SDS011;6472;52.328;13.070;2024-02-23T00:04:12;0.60;;;0.60;;
12814;SDS011;6472;52.328;13.070;2024-02-23T00:06:40;0.80;;;0.77;;
12814;SDS011;6472;52.328;13.070;2024-02-23T00:09:08;1.03;;;1.00;;
12814;SDS011;6472;52.328;13.070;2024-02-23T00:11:38;0.93;;;0.93;;
12814;SDS011;6472;52.328;13.070;2024-02-23T00:14:12;0.70;;;0.70;;
12814;SDS011;6472;52.328;13.070;2024-02-23T00:16:40;1.27;;;1.17;;
12814;SDS011;6472;52.328;13.070;2024-02-23T00:19:09;1.53;;;1.43;;
12814;SDS011;6472;52.328;13.070;2024-02-23T00:21:37;0.97;;;0.97;;
12814;SDS011;6472;52.328;13.070;2024-02-23T00:24:06;1.03;;;0.97;;
12814;SDS011;6472;52.328;13.070;2024-02-23T00:26:34;0.97;;;0.70;;
12814;SDS011;6472;52.328;13.070;2024-02-23T00:29:02;0.93;;;0.93;;
12814;SDS011;6472;52.328;13.070;2024-02-23T00:31:32;1.63;;;0.77;;
12814;SDS011;6472;52.328;13.070;2024-02-23T00:34:00;1.37;;;1.17;;
12814;SDS011;6472;52.328;13.070;2024-02-23T00:36:28;1.13;;;0.90;;
12814;SDS011;6472;52.328;13.070;2024-02-23T00:38:58;1.07;;;1.03;;
12814;SDS011;6472;52.328;13.070;2024-02-23T00:41:29;2.43;;;0.90;;
12814;SDS011;6472;52.328;13.070;2024-02-23T00:43:57;2.27;;;0.93;;
12814;SDS011;6472;52.328;13.070;2024-02-23T00:46:25;2.37;;;1.10;;
12814;SDS011;6472;52.328;13.070;2024-02-23T00:48:54;0.80;;;0.80;;
12814;SDS011;6472;52.328;13.070;2024-02-23T00:51:23;1.10;;;1.00;;
12814;SDS011;6472;52.328;13.070;2024-02-23T00:53:51;1.70;;;1.13;;
12814;SDS011;6472;52.328;13.070;2024-02-23T00:56:19;1.10;;;1.00;;
12814;SDS011;6472;52.328;13.070;2024-02-23T00:58:58;1.10;;;1.00;;
12814;SDS011;6472;52.328;13.070;2024-02-23T01:01:26;1.30;;;1.20;;
12814;SDS011;6472;52.328;13.070;2024-02-23T01:03:56;1.00;;;1.00;;
12814;SDS011;6472;52.328;13.070;2024-02-23T01:06:24;4.53;;;1.73;;
12814;SDS011;6472;52.328;13.070;2024-02-23T01:08:54;2.13;;;1.00;;
12814;SDS011;6472;52.328;13.070;2024-02-23T01:11:22;1.17;;;0.90;;
12814;SDS011;6472;52.328;13.070;2024-02-23T01:13:51;0.80;;;0.80;;
12814;SDS011;6472;52.328;13.070;2024-02-23T01:16:19;1.00;;;0.90;;
12814;SDS011;6472;52.328;13.070;2024-02-23T01:18:47;1.07;;;0.80;;
12814;SDS011;6472;52.328;13.070;2024-02-23T01:21:17;0.83;;;0.80;;
12814;SDS011;6472;52.328;13.070;2024-02-23T01:23:45;0.80;;;0.80;;
12814;SDS011;6472;52.328;13.070;2024-02-23T01:26:13;1.00;;;1.00;;
12814;SDS011;6472;52.328;13.070;2024-02-23T01:28:41;2.10;;;0.90;;
12814;SDS011;6472;52.328;13.070;2024-02-23T01:31:09;0.87;;;0.77;;
12814;SDS011;6472;52.328;13.070;2024-02-23T01:33:38;0.70;;;0.70;;
12814;SDS011;6472;52.328;13.070;2024-02-23T01:36:07;1.40;;;0.90;;
12814;SDS011;6472;52.328;13.070;2024-02-23T01:38:37;0.50;;;0.50;;
12814;SDS011;6472;52.328;13.070;2024-02-23T01:41:05;0.80;;;0.80;;
12814;SDS011;6472;52.328;13.070;2024-02-23T01:43:33;1.57;;;0.50;;
12814;SDS011;6472;52.328;13.070;2024-02-23T01:46:02;0.67;;;0.67;;
12814;SDS011;6472;52.328;13.070;2024-02-23T01:48:32;0.83;;;0.77;;
12814;SDS011;6472;52.328;13.070;2024-02-23T01:51:01;0.60;;;0.57;;
12814;SDS011;6472;52.328;13.070;2024-02-23T01:53:29;0.50;;;0.50;;
12814;SDS011;6472;52.328;13.070;2024-02-23T01:55:59;0.93;;;0.60;;
12814;SDS011;6472;52.328;13.070;2024-02-23T01:58:28;1.20;;;0.50;;
12814;SDS011;6472;52.328;13.070;2024-02-23T02:01:01;3.90;;;0.50;;
12814;SDS011;6472;52.328;13.070;2024-02-23T02:03:29;1.43;;;0.50;;
12814;SDS011;6472;52.328;13.070;2024-02-23T02:05:57;1.63;;;0.40;;
12814;SDS011;6472;52.328;13.070;2024-02-23T02:08:25;0.30;;;0.30;;
12814;SDS011;6472;52.328;13.070;2024-02-23T02:10:54;2.17;;;0.40;;
12814;SDS011;6472;52.328;13.070;2024-02-23T02:13:23;2.67;;;0.30;;
12814;SDS011;6472;52.328;13.070;2024-02-23T02:15:51;0.50;;;0.50;;
12814;SDS011;6472;52.328;13.070;2024-02-23T02:18:19;0.50;;;0.30;;
12814;SDS011;6472;52.328;13.070;2024-02-23T02:20:50;0.10;;;0.10;;
12814;SDS011;6472;52.328;13.070;2024-02-23T02:23:21;0.87;;;0.40;;
12814;SDS011;6472;52.328;13.070;2024-02-23T02:25:52;0.30;;;0.30;;
12814;SDS011;6472;52.328;13.070;2024-02-23T02:28:21;1.43;;;0.40;;
12814;SDS011;6472;52.328;13.070;2024-02-23T02:30:52;0.20;;;0.20;;
12814;SDS011;6472;52.328;13.070;2024-02-23T02:33:20;0.67;;;0.53;;
12814;SDS011;6472;52.328;13.070;2024-02-23T02:35:49;0.70;;;0.40;;
12814;SDS011;6472;52.328;13.070;2024-02-23T02:38:17;0.40;;;0.40;;
12814;SDS011;6472;52.328;13.070;2024-02-23T02:40:45;1.13;;;0.50;;
12814;SDS011;6472;52.328;13.070;2024-02-23T02:43:13;4.00;;;0.50;;
12814;SDS011;6472;52.328;13.070;2024-02-23T02:45:41;2.47;;;0.70;;
12814;SDS011;6472;52.328;13.070;2024-02-23T02:48:11;1.40;;;0.40;;
12814;SDS011;6472;52.328;13.070;2024-02-23T02:50:39;0.20;;;0.20;;
12814;SDS011;6472;52.328;13.070;2024-02-23T02:53:08;0.63;;;0.47;;
12814;SDS011;6472;52.328;13.070;2024-02-23T02:55:36;0.63;;;0.30;;
12814;SDS011;6472;52.328;13.070;2024-02-23T02:58:04;0.43;;;0.30;;
12814;SDS011;6472;52.328;13.070;2024-02-23T03:00:32;0.40;;;0.40;;
12814;SDS011;6472;52.328;13.070;2024-02-23T03:03:00;0.50;;;0.50;;
12814;SDS011;6472;52.328;13.070;2024-02-23T03:05:29;0.43;;;0.30;;
12814;SDS011;6472;52.328;13.070;2024-02-23T03:07:58;0.47;;;0.40;;
12814;SDS011;6472;52.328;13.070;2024-02-23T03:10:26;0.93;;;0.40;;
12814;SDS011;6472;52.328;13.070;2024-02-23T03:12:54;0.57;;;0.30;;
12814;SDS011;6472;52.328;13.070;2024-02-23T03:15:22;0.77;;;0.30;;
12814;SDS011;6472;52.328;13.070;2024-02-23T03:17:50;0.30;;;0.30;;
12814;SDS011;6472;52.328;13.070;2024-02-23T03:20:21;0.27;;;0.27;;
12814;SDS011;6472;52.328;13.070;2024-02-23T03:22:50;0.30;;;0.30;;
12814;SDS011;6472;52.328;13.070;2024-02-23T03:25:18;1.03;;;0.30;;
12814;SDS011;6472;52.328;13.070;2024-02-23T03:27:46;0.40;;;0.20;;
12814;SDS011;6472;52.328;13.070;2024-02-23T03:30:15;0.77;;;0.30;;
12814;SDS011;6472;52.328;13.070;2024-02-23T03:32:43;0.30;;;0.30;;
12814;SDS011;6472;52.328;13.070;2024-02-23T03:35:13;0.37;;;0.37;;
12814;SDS011;6472;52.328;13.070;2024-02-23T03:37:41;1.20;;;0.50;;
12814;SDS011;6472;52.328;13.070;2024-02-23T03:40:11;2.00;;;0.33;;
12814;SDS011;6472;52.328;13.070;2024-02-23T03:42:40;2.77;;;0.47;;
12814;SDS011;6472;52.328;13.070;2024-02-23T03:45:08;1.70;;;0.40;;
12814;SDS011;6472;52.328;13.070;2024-02-23T03:47:36;1.63;;;0.60;;
12814;SDS011;6472;52.328;13.070;2024-02-23T03:50:05;0.67;;;0.40;;
12814;SDS011;6472;52.328;13.070;2024-02-23T03:52:34;3.20;;;0.60;;
12814;SDS011;6472;52.328;13.070;2024-02-23T03:55:02;0.80;;;0.43;;
12814;SDS011;6472;52.328;13.070;2024-02-23T03:57:32;1.70;;;0.50;;
12814;SDS011;6472;52.328;13.070;2024-02-23T04:00:00;1.07;;;0.60;;
12814;SDS011;6472;52.328;13.070;2024-02-23T04:02:29;0.37;;;0.23;;
12814;SDS011;6472;52.328;13.070;2024-02-23T04:04:57;0.87;;;0.53;;
12814;SDS011;6472;52.328;13.070;2024-02-23T04:07:25;2.57;;;0.40;;
12814;SDS011;6472;52.328;13.070;2024-02-23T04:09:53;0.40;;;0.40;;
12814;SDS011;6472;52.328;13.070;2024-02-23T04:12:21;0.70;;;0.30;;
12814;SDS011;6472;52.328;13.070;2024-02-23T04:14:50;0.57;;;0.20;;
12814;SDS011;6472;52.328;13.070;2024-02-23T04:17:18;1.60;;;0.40;;
12814;SDS011;6472;52.328;13.070;2024-02-23T04:19:46;1.43;;;0.40;;
12814;SDS011;6472;52.328;13.070;2024-02-23T04:22:15;1.87;;;0.50;;
12814;SDS011;6472;52.328;13.070;2024-02-23T04:24:43;0.43;;;0.40;;
12814;SDS011;6472;52.328;13.070;2024-02-23T04:27:11;0.47;;;0.40;;
12814;SDS011;6472;52.328;13.070;2024-02-23T04:29:39;0.47;;;0.20;;
12814;SDS011;6472;52.328;13.070;2024-02-23T04:32:08;0.60;;;0.30;;
12814;SDS011;6472;52.328;13.070;2024-02-23T04:34:36;1.70;;;0.53;;
12814;SDS011;6472;52.328;13.070;2024-02-23T04:37:05;0.30;;;0.30;;
12814;SDS011;6472;52.328;13.070;2024-02-23T04:39:33;0.53;;;0.40;;
12814;SDS011;6472;52.328;13.070;2024-02-23T04:42:01;0.30;;;0.30;;
12814;SDS011;6472;52.328;13.070;2024-02-23T04:44:30;0.30;;;0.30;;
12814;SDS011;6472;52.328;13.070;2024-02-23T04:46:58;0.40;;;0.40;;
12814;SDS011;6472;52.328;13.070;2024-02-23T04:49:27;0.30;;;0.30;;
12814;SDS011;6472;52.328;13.070;2024-02-23T04:51:56;0.10;;;0.10;;
12814;SDS011;6472;52.328;13.070;2024-02-23T04:54:24;0.83;;;0.83;;
12814;SDS011;6472;52.328;13.070;2024-02-23T04:56:52;0.20;;;0.20;;
12814;SDS011;6472;52.328;13.070;2024-02-23T04:59:20;0.77;;;0.30;;
12814;SDS011;6472;52.328;13.070;2024-02-23T05:01:48;0.17;;;0.17;;
12814;SDS011;6472;52.328;13.070;2024-02-23T05:04:16;0.30;;;0.30;;
12814;SDS011;6472;52.328;13.070;2024-02-23T05:06:46;0.30;;;0.30;;
12814;SDS011;6472;52.328;13.070;2024-02-23T05:09:14;1.03;;;0.57;;
12814;SDS011;6472;52.328;13.070;2024-02-23T05:11:42;0.37;;;0.30;;
12814;SDS011;6472;52.328;13.070;2024-02-23T05:14:12;0.27;;;0.27;;
12814;SDS011;6472;52.328;13.070;2024-02-23T05:16:40;0.30;;;0.30;;
12814;SDS011;6472;52.328;13.070;2024-02-23T05:19:08;0.80;;;0.50;;
12814;SDS011;6472;52.328;13.070;2024-02-23T05:21:36;0.67;;;0.23;;
12814;SDS011;6472;52.328;13.070;2024-02-23T05:24:06;0.30;;;0.30;;
12814;SDS011;6472;52.328;13.070;2024-02-23T05:26:34;0.20;;;0.20;;
12814;SDS011;6472;52.328;13.070;2024-02-23T05:29:02;0.30;;;0.30;;
12814;SDS011;6472;52.328;13.070;2024-02-23T05:31:43;1.70;;;0.43;;
12814;SDS011;6472;52.328;13.070;2024-02-23T05:34:13;0.67;;;0.30;;
12814;SDS011;6472;52.328;13.070;2024-02-23T05:36:41;0.40;;;0.20;;
12814;SDS011;6472;52.328;13.070;2024-02-23T05:39:11;0.20;;;0.20;;
12814;SDS011;6472;52.328;13.070;2024-02-23T05:41:41;1.23;;;0.30;;
12814;SDS011;6472;52.328;13.070;2024-02-23T05:44:09;0.40;;;0.30;;
12814;SDS011;6472;52.328;13.070;2024-02-23T05:46:39;0.20;;;0.20;;
12814;SDS011;6472;52.328;13.070;2024-02-23T05:49:10;0.63;;;0.30;;
12814;SDS011;6472;52.328;13.070;2024-02-23T05:51:38;0.40;;;0.20;;
12814;SDS011;6472;52.328;13.070;2024-02-23T05:54:06;0.37;;;0.37;;
12814;SDS011;6472;52.328;13.070;2024-02-23T05:56:36;0.30;;;0.30;;
12814;SDS011;6472;52.328;13.070;2024-02-23T05:59:04;0.20;;;0.20;;
12814;SDS011;6472;52.328;13.070;2024-02-23T06:01:33;0.20;;;0.20;;
12814;SDS011;6472;52.328;13.070;2024-02-23T06:04:01;0.20;;;0.20;;
12814;SDS011;6472;52.328;13.070;2024-02-23T06:06:29;0.30;;;0.30;;
12814;SDS011;6472;52.328;13.070;2024-02-23T06:08:57;0.40;;;0.40;;
12814;SDS011;6472;52.328;13.070;2024-02-23T06:11:26;0.23;;;0.23;;
12814;SDS011;6472;52.328;13.070;2024-02-23T06:13:56;0.60;;;0.30;;
12814;SDS011;6472;52.328;13.070;2024-02-23T06:16:24;0.33;;;0.33;;
12814;SDS011;6472;52.328;13.070;2024-02-23T06:18:52;0.50;;;0.50;;
12814;SDS011;6472;52.328;13.070;2024-02-23T06:21:20;0.53;;;0.30;;
12814;SDS011;6472;52.328;13.070;2024-02-23T06:23:48;0.30;;;0.30;;
12814;SDS011;6472;52.328;13.070;2024-02-23T06:26:16;1.07;;;0.40;;
12814;SDS011;6472;52.328;13.070;2024-02-23T06:28:44;0.40;;;0.40;;
12814;SDS011;6472;52.328;13.070;2024-02-23T06:31:14;0.20;;;0.20;;
12814;SDS011;6472;52.328;13.070;2024-02-23T06:33:43;0.30;;;0.30;;
12814;SDS011;6472;52.328;13.070;2024-02-23T06:36:15;0.13;;;0.13;;
12814;SDS011;6472;52.328;13.070;2024-02-23T06:38:43;0.30;;;0.30;;
12814;SDS011;6472;52.328;13.070;2024-02-23T06:41:11;0.40;;;0.40;;
12814;SDS011;6472;52.328;13.070;2024-02-23T06:43:40;0.50;;;0.50;;
12814;SDS011;6472;52.328;13.070;2024-02-23T06:46:08;1.07;;;0.43;;
12814;SDS011;6472;52.328;13.070;2024-02-23T06:48:38;0.50;;;0.30;;
12814;SDS011;6472;52.328;13.070;2024-02-23T06:51:07;2.03;;;1.07;;
12814;SDS011;6472;52.328;13.070;2024-02-23T06:53:36;0.93;;;0.37;;
12814;SDS011;6472;52.328;13.070;2024-02-23T06:56:05;0.37;;;0.37;;
12814;SDS011;6472;52.328;13.070;2024-02-23T06:58:34;1.30;;;0.50;;
12814;SDS011;6472;52.328;13.070;2024-02-23T07:01:02;0.80;;;0.80;;
12814;SDS011;6472;52.328;13.070;2024-02-23T07:03:32;1.03;;;0.87;;
12814;SDS011;6472;52.328;13.070;2024-02-23T07:06:03;0.53;;;0.50;;
12814;SDS011;6472;52.328;13.070;2024-02-23T07:08:31;0.87;;;0.53;;
12814;SDS011;6472;52.328;13.070;2024-02-23T07:11:00;0.30;;;0.30;;
12814;SDS011;6472;52.328;13.070;2024-02-23T07:13:28;0.40;;;0.40;;
12814;SDS011;6472;52.328;13.070;2024-02-23T07:15:57;0.33;;;0.30;;
12814;SDS011;6472;52.328;13.070;2024-02-23T07:18:25;0.30;;;0.30;;
12814;SDS011;6472;52.328;13.070;2024-02-23T07:20:53;0.30;;;0.30;;
12814;SDS011;6472;52.328;13.070;2024-02-23T07:23:23;0.50;;;0.50;;
12814;SDS011;6472;52.328;13.070;2024-02-23T07:25:51;0.30;;;0.30;;
12814;SDS011;6472;52.328;13.070;2024-02-23T07:28:19;0.20;;;0.20;;
12814;SDS011;6472;52.328;13.070;2024-02-23T07:30:49;0.20;;;0.20;;
12814;SDS011;6472;52.328;13.070;2024-02-23T07:33:19;0.30;;;0.30;;
12814;SDS011;6472;52.328;13.070;2024-02-23T07:35:47;0.70;;;0.40;;
12814;SDS011;6472;52.328;13.070;2024-02-23T07:38:15;0.50;;;0.50;;
12814;SDS011;6472;52.328;13.070;2024-02-23T07:40:46;1.03;;;0.30;;
12814;SDS011;6472;52.328;13.070;2024-02-23T07:43:14;0.40;;;0.33;;
12814;SDS011;6472;52.328;13.070;2024-02-23T07:45:42;0.27;;;0.27;;
12814;SDS011;6472;52.328;13.070;2024-02-23T07:48:10;0.30;;;0.30;;
12814;SDS011;6472;52.328;13.070;2024-02-23T07:50:39;0.70;;;0.30;;
12814;SDS011;6472;52.328;13.070;2024-02-23T07:53:07;0.40;;;0.40;;
12814;SDS011;6472;52.328;13.070;2024-02-23T07:55:35;0.90;;;0.40;;
12814;SDS011;6472;52.328;13.070;2024-02-23T07:58:05;0.20;;;0.20;;
12814;SDS011;6472;52.328;13.070;2024-02-23T08:00:33;0.40;;;0.40;;
12814;SDS011;6472;52.328;13.070;2024-02-23T08:03:04;0.40;;;0.40;;
12814;SDS011;6472;52.328;13.070;2024-02-23T08:05:34;0.97;;;0.30;;
12814;SDS011;6472;52.328;13.070;2024-02-23T08:08:02;0.40;;;0.40;;
12814;SDS011;6472;52.328;13.070;2024-02-23T08:10:33;0.43;;;0.43;;
12814;SDS011;6472;52.328;13.070;2024-02-23T08:13:01;0.53;;;0.23;;
12814;SDS011;6472;52.328;13.070;2024-02-23T08:15:31;0.70;;;0.33;;
12814;SDS011;6472;52.328;13.070;2024-02-23T08:17:59;0.50;;;0.50;;
12814;SDS011;6472;52.328;13.070;2024-02-23T08:20:27;0.30;;;0.30;;
12814;SDS011;6472;52.328;13.070;2024-02-23T08:22:55;0.60;;;0.40;;
12814;SDS011;6472;52.328;13.070;2024-02-23T08:25:23;0.40;;;0.40;;
12814;SDS011;6472;52.328;13.070;2024-02-23T08:27:54;0.30;;;0.30;;
12814;SDS011;6472;52.328;13.070;2024-02-23T08:30:23;1.33;;;0.60;;
12814;SDS011;6472;52.328;13.070;2024-02-23T08:32:52;0.73;;;0.47;;
12814;SDS011;6472;52.328;13.070;2024-02-23T08:35:21;0.63;;;0.60;;
12814;SDS011;6472;52.328;13.070;2024-02-23T08:37:49;0.50;;;0.50;;
12814;SDS011;6472;52.328;13.070;2024-02-23T08:40:17;0.57;;;0.43;;
12814;SDS011;6472;52.328;13.070;2024-02-23T08:42:45;1.33;;;0.40;;
12814;SDS011;6472;52.328;13.070;2024-02-23T08:45:16;2.17;;;0.70;;
12814;SDS011;6472;52.328;13.070;2024-02-23T08:47:44;0.77;;;0.50;;
12814;SDS011;6472;52.328;13.070;2024-02-23T08:50:14;0.50;;;0.40;;
12814;SDS011;6472;52.328;13.070;2024-02-23T08:52:42;1.80;;;0.60;;
12814;SDS011;6472;52.328;13.070;2024-02-23T08:55:10;1.60;;;0.60;;
12814;SDS011;6472;52.328;13.070;2024-02-23T08:57:38;2.40;;;0.60;;
12814;SDS011;6472;52.328;13.070;2024-02-23T09:00:07;3.70;;;0.57;;
12814;SDS011;6472;52.328;13.070;2024-02-23T09:02:39;1.40;;;0.50;;
12814;SDS011;6472;52.328;13.070;2024-02-23T09:05:08;0.40;;;0.40;;
12814;SDS011;6472;52.328;13.070;2024-02-23T09:07:38;0.30;;;0.30;;
12814;SDS011;6472;52.328;13.070;2024-02-23T09:10:07;0.30;;;0.30;;
12814;SDS011;6472;52.328;13.070;2024-02-23T09:12:35;0.63;;;0.30;;
12814;SDS011;6472;52.328;13.070;2024-02-23T09:15:04;1.00;;;0.57;;
12814;SDS011;6472;52.328;13.070;2024-02-23T09:17:34;1.07;;;0.40;;
12814;SDS011;6472;52.328;13.070;2024-02-23T09:20:02;0.37;;;0.33;;
12814;SDS011;6472;52.328;13.070;2024-02-23T09:22:31;0.43;;;0.43;;
12814;SDS011;6472;52.328;13.070;2024-02-23T09:25:00;0.50;;;0.40;;
12814;SDS011;6472;52.328;13.070;2024-02-23T09:27:29;0.53;;;0.40;;
12814;SDS011;6472;52.328;13.070;2024-02-23T09:29:57;0.20;;;0.20;;
12814;SDS011;6472;52.328;13.070;2024-02-23T09:32:25;0.30;;;0.30;;
12814;SDS011;6472;52.328;13.070;2024-02-23T09:34:53;0.93;;;0.40;;
12814;SDS011;6472;52.328;13.070;2024-02-23T09:37:21;0.30;;;0.30;;
12814;SDS011;6472;52.328;13.070;2024-02-23T09:39:49;0.37;;;0.23;;
12814;SDS011;6472;52.328;13.070;2024-02-23T09:42:18;0.57;;;0.30;;
12814;SDS011;6472;52.328;13.070;2024-02-23T09:44:51;0.53;;;0.47;;
12814;SDS011;6472;52.328;13.070;2024-02-23T09:47:26;0.30;;;0.30;;
12814;SDS011;6472;52.328;13.070;2024-02-23T09:49:55;0.30;;;0.30;;
12814;SDS011;6472;52.328;13.070;2024-02-23T09:52:23;1.23;;;0.50;;
12814;SDS011;6472;52.328;13.070;2024-02-23T09:54:54;1.17;;;0.30;;
12814;SDS011;6472;52.328;13.070;2024-02-23T09:57:24;0.27;;;0.27;;
12814;SDS011;6472;52.328;13.070;2024-02-23T09:59:53;0.93;;;0.30;;
12814;SDS011;6472;52.328;13.070;2024-02-23T10:02:21;2.10;;;0.47;;
12814;SDS011;6472;52.328;13.070;2024-02-23T10:04:50;0.77;;;0.30;;
12814;SDS011;6472;52.328;13.070;2024-02-23T10:07:22;3.43;;;0.40;;
12814;SDS011;6472;52.328;13.070;2024-02-23T10:09:52;0.53;;;0.30;;
12814;SDS011;6472;52.328;13.070;2024-02-23T10:12:21;0.50;;;0.40;;
12814;SDS011;6472;52.328;13.070;2024-02-23T10:14:51;0.73;;;0.43;;
12814;SDS011;6472;52.328;13.070;2024-02-23T10:17:19;0.43;;;0.43;;
12814;SDS011;6472;52.328;13.070;2024-02-23T10:19:48;1.07;;;0.70;;
12814;SDS011;6472;52.328;13.070;2024-02-23T10:22:16;2.90;;;0.87;;
12814;SDS011;6472;52.328;13.070;2024-02-23T10:24:44;0.30;;;0.30;;
12814;SDS011;6472;52.328;13.070;2024-02-23T10:27:12;0.40;;;0.40;;
12814;SDS011;6472;52.328;13.070;2024-02-23T10:29:41;0.40;;;0.40;;
12814;SDS011;6472;52.328;13.070;2024-02-23T10:32:10;0.53;;;0.53;;
12814;SDS011;6472;52.328;13.070;2024-02-23T10:34:42;0.73;;;0.47;;
12814;SDS011;6472;52.328;13.070;2024-02-23T10:37:11;1.30;;;0.90;;
12814;SDS011;6472;52.328;13.070;2024-02-23T10:39:39;0.30;;;0.30;;
12814;SDS011;6472;52.328;13.070;2024-02-23T10:42:08;0.40;;;0.40;;
12814;SDS011;6472;52.328;13.070;2024-02-23T10:44:37;0.33;;;0.33;;
12814;SDS011;6472;52.328;13.070;2024-02-23T10:47:08;3.00;;;0.50;;
12814;SDS011;6472;52.328;13.070;2024-02-23T10:49:36;2.60;;;0.70;;
12814;SDS011;6472;52.328;13.070;2024-02-23T10:52:06;3.00;;;0.70;;
12814;SDS011;6472;52.328;13.070;2024-02-23T10:54:38;0.50;;;0.40;;
12814;SDS011;6472;52.328;13.070;2024-02-23T10:57:07;1.33;;;0.83;;
12814;SDS011;6472;52.328;13.070;2024-02-23T10:59:35;0.50;;;0.50;;
12814;SDS011;6472;52.328;13.070;2024-02-23T11:02:03;2.93;;;2.20;;
12814;SDS011;6472;52.328;13.070;2024-02-23T11:04:35;1.20;;;1.10;;
12814;SDS011;6472;52.328;13.070;2024-02-23T11:07:04;0.90;;;0.90;;
12814;SDS011;6472;52.328;13.070;2024-02-23T11:09:41;1.37;;;0.90;;
12814;SDS011;6472;52.328;13.070;2024-02-23T11:12:09;4.10;;;2.90;;
12814;SDS011;6472;52.328;13.070;2024-02-23T11:14:37;5.93;;;2.57;;
12814;SDS011;6472;52.328;13.070;2024-02-23T11:17:06;1.10;;;0.90;;
12814;SDS011;6472;52.328;13.070;2024-02-23T11:19:46;1.57;;;0.53;;
12814;SDS011;6472;52.328;13.070;2024-02-23T11:22:23;1.33;;;0.93;;
12814;SDS011;6472;52.328;13.070;2024-02-23T11:25:04;5.20;;;1.67;;
12814;SDS011;6472;52.328;13.070;2024-02-23T11:27:35;4.10;;;2.20;;
12814;SDS011;6472;52.328;13.070;2024-02-23T11:30:04;2.37;;;1.50;;
12814;SDS011;6472;52.328;13.070;2024-02-23T11:32:37;4.50;;;0.67;;
12814;SDS011;6472;52.328;13.070;2024-02-23T11:35:10;0.60;;;0.60;;
12814;SDS011;6472;52.328;13.070;2024-02-23T11:37:45;0.67;;;0.67;;
12814;SDS011;6472;52.328;13.070;2024-02-23T11:40:14;1.33;;;0.80;;
12814;SDS011;6472;52.328;13.070;2024-02-23T11:42:44;2.13;;;0.73;;
12814;SDS011;6472;52.328;13.070;2024-02-23T11:45:13;2.13;;;0.70;;
12814;SDS011;6472;52.328;13.070;2024-02-23T11:47:43;2.10;;;0.70;;
12814;SDS011;6472;52.328;13.070;2024-02-23T11:50:13;0.37;;;0.37;;
12814;SDS011;6472;52.328;13.070;2024-02-23T11:52:42;0.50;;;0.50;;
12814;SDS011;6472;52.328;13.070;2024-02-23T11:55:10;4.17;;;0.57;;
12814;SDS011;6472;52.328;13.070;2024-02-23T11:57:40;1.93;;;0.60;;
12814;SDS011;6472;52.328;13.070;2024-02-23T12:00:14;0.57;;;0.50;;
12814;SDS011;6472;52.328;13.070;2024-02-23T12:02:43;1.70;;;0.80;;
12814;SDS011;6472;52.328;13.070;2024-02-23T12:05:13;1.13;;;0.80;;
12814;SDS011;6472;52.328;13.070;2024-02-23T12:07:41;0.60;;;0.60;;
12814;SDS011;6472;52.328;13.070;2024-02-23T12:10:13;0.87;;;0.87;;
12814;SDS011;6472;52.328;13.070;2024-02-23T12:12:41;0.77;;;0.50;;
12814;SDS011;6472;52.328;13.070;2024-02-23T12:15:10;0.43;;;0.43;;
12814;SDS011;6472;52.328;13.070;2024-02-23T12:17:46;1.67;;;0.70;;
12814;SDS011;6472;52.328;13.070;2024-02-23T12:20:16;1.10;;;0.53;;
12814;SDS011;6472;52.328;13.070;2024-02-23T12:22:45;1.10;;;0.50;;
12814;SDS011;6472;52.328;13.070;2024-02-23T12:25:14;1.27;;;0.60;;
12814;SDS011;6472;52.328;13.070;2024-02-23T12:27:43;0.67;;;0.50;;
12814;SDS011;6472;52.328;13.070;2024-02-23T12:30:13;1.43;;;0.70;;
12814;SDS011;6472;52.328;13.070;2024-02-23T12:32:42;1.47;;;0.93;;
12814;SDS011;6472;52.328;13.070;2024-02-23T12:35:12;2.33;;;1.10;;
12814;SDS011;6472;52.328;13.070;2024-02-23T12:37:43;1.50;;;0.90;;
12814;SDS011;6472;52.328;13.070;2024-02-23T12:40:12;4.53;;;1.27;;
12814;SDS011;6472;52.328;13.070;2024-02-23T12:42:40;1.73;;;0.80;;
12814;SDS011;6472;52.328;13.070;2024-02-23T12:45:09;1.13;;;0.70;;
12814;SDS011;6472;52.328;13.070;2024-02-23T12:47:37;1.77;;;0.67;;
12814;SDS011;6472;52.328;13.070;2024-02-23T12:50:07;2.07;;;0.70;;
12814;SDS011;6472;52.328;13.070;2024-02-23T12:52:36;0.77;;;0.70;;
12814;SDS011;6472;52.328;13.070;2024-02-23T12:55:06;0.70;;;0.70;;
12814;SDS011;6472;52.328;13.070;2024-02-23T12:57:35;1.00;;;0.50;;
12814;SDS011;6472;52.328;13.070;2024-02-23T13:00:04;1.77;;;0.63;;
12814;SDS011;6472;52.328;13.070;2024-02-23T13:02:33;1.97;;;0.70;;
12814;SDS011;6472;52.328;13.070;2024-02-23T13:05:01;0.70;;;0.43;;
12814;SDS011;6472;52.328;13.070;2024-02-23T13:07:29;8.73;;;0.97;;
12814;SDS011;6472;52.328;13.070;2024-02-23T13:09:58;0.97;;;0.50;;
12814;SDS011;6472;52.328;13.070;2024-02-23T13:12:28;0.60;;;0.60;;
12814;SDS011;6472;52.328;13.070;2024-02-23T13:14:56;0.77;;;0.53;;
12814;SDS011;6472;52.328;13.070;2024-02-23T13:17:24;0.57;;;0.50;;
12814;SDS011;6472;52.328;13.070;2024-02-23T13:19:54;2.27;;;0.60;;
12814;SDS011;6472;52.328;13.070;2024-02-23T13:22:36;2.37;;;0.40;;
12814;SDS011;6472;52.328;13.070;2024-02-23T13:25:04;0.83;;;0.50;;
12814;SDS011;6472;52.328;13.070;2024-02-23T13:27:35;1.27;;;0.50;;
12814;SDS011;6472;52.328;13.070;2024-02-23T13:30:03;1.80;;;0.70;;
12814;SDS011;6472;52.328;13.070;2024-02-23T13:32:33;0.40;;;0.40;;
12814;SDS011;6472;52.328;13.070;2024-02-23T13:35:02;3.27;;;0.50;;
12814;SDS011;6472;52.328;13.070;2024-02-23T13:37:33;3.63;;;0.70;;
12814;SDS011;6472;52.328;13.070;2024-02-23T13:40:01;3.57;;;0.60;;
12814;SDS011;6472;52.328;13.070;2024-02-23T13:42:32;2.00;;;0.50;;
12814;SDS011;6472;52.328;13.070;2024-02-23T13:45:01;1.83;;;0.70;;
12814;SDS011;6472;52.328;13.070;2024-02-23T13:47:29;0.90;;;0.50;;
12814;SDS011;6472;52.328;13.070;2024-02-23T13:49:58;2.07;;;0.73;;
12814;SDS011;6472;52.328;13.070;2024-02-23T13:52:38;3.50;;;0.70;;
12814;SDS011;6472;52.328;13.070;2024-02-23T13:55:45;2.20;;;0.80;;
12814;SDS011;6472;52.328;13.070;2024-02-23T13:58:14;1.07;;;0.47;;
12814;SDS011;6472;52.328;13.070;2024-02-23T14:00:50;1.50;;;0.60;;
12814;SDS011;6472;52.328;13.070;2024-02-23T14:03:18;1.93;;;0.70;;
12814;SDS011;6472;52.328;13.070;2024-02-23T14:05:48;1.07;;;0.50;;
12814;SDS011;6472;52.328;13.070;2024-02-23T14:08:16;2.17;;;0.80;;
12814;SDS011;6472;52.328;13.070;2024-02-23T14:10:44;0.50;;;0.50;;
12814;SDS011;6472;52.328;13.070;2024-02-23T14:13:13;1.17;;;0.60;;
12814;SDS011;6472;52.328;13.070;2024-02-23T14:15:41;0.63;;;0.60;;
12814;SDS011;6472;52.328;13.070;2024-02-23T14:18:10;1.03;;;0.50;;
12814;SDS011;6472;52.328;13.070;2024-02-23T14:20:38;3.47;;;0.83;;
12814;SDS011;6472;52.328;13.070;2024-02-23T14:23:07;0.60;;;0.60;;
12814;SDS011;6472;52.328;13.070;2024-02-23T14:25:35;1.90;;;0.97;;
12814;SDS011;6472;52.328;13.070;2024-02-23T14:28:03;1.90;;;0.80;;
12814;SDS011;6472;52.328;13.070;2024-02-23T14:30:31;0.70;;;0.60;;
12814;SDS011;6472;52.328;13.070;2024-02-23T14:32:59;1.20;;;0.60;;
12814;SDS011;6472;52.328;13.070;2024-02-23T14:35:29;2.17;;;0.80;;
12814;SDS011;6472;52.328;13.070;2024-02-23T14:37:57;0.60;;;0.60;;
12814;SDS011;6472;52.328;13.070;2024-02-23T14:40:26;1.07;;;0.63;;
12814;SDS011;6472;52.328;13.070;2024-02-23T14:42:54;2.47;;;0.60;;
12814;SDS011;6472;52.328;13.070;2024-02-23T14:45:22;2.30;;;0.60;;
12814;SDS011;6472;52.328;13.070;2024-02-23T14:47:50;0.40;;;0.40;;
12814;SDS011;6472;52.328;13.070;2024-02-23T14:50:19;0.80;;;0.80;;
12814;SDS011;6472;52.328;13.070;2024-02-23T14:52:48;1.47;;;0.53;;
12814;SDS011;6472;52.328;13.070;2024-02-23T14:55:17;2.83;;;0.80;;
12814;SDS011;6472;52.328;13.070;2024-02-23T14:57:45;0.60;;;0.60;;
12814;SDS011;6472;52.328;13.070;2024-02-23T15:00:13;0.67;;;0.60;;